createdAt,value
2023-01-02T00:00:43.586Z,25.00
2023-01-02T00:01:43.486Z,27.55
2023-01-02T00:02:43.610Z,28.47
2023-01-02T00:03:43.534Z,28.88
2023-01-02T00:04:43.413Z,27.91
2023-01-02T00:05:43.389Z,26.07
2023-01-02T00:06:43.335Z,30.05
2023-01-02T00:07:43.316Z,26.35
2023-01-02T00:08:43.284Z,30.78
2023-01-02T00:09:43.225Z,29.80
2023-01-02T00:10:43.220Z,27.79
2023-01-02T00:11:43.169Z,30.01
2023-01-02T00:12:43.153Z,28.42
2023-01-02T00:13:43.100Z,30.03
2023-01-02T00:14:43.083Z,28.44
2023-01-02T00:15:43.097Z,27.90
2023-01-02T00:16:43.030Z,27.00
2023-01-02T00:17:42.994Z,29.40
2023-01-02T00:18:42.960Z,29.37
2023-01-02T00:19:42.918Z,27.02
2023-01-02T00:20:42.912Z,29.61
2023-01-02T00:21:42.880Z,26.95
2023-01-02T00:22:42.847Z,28.38
2023-01-02T00:23:42.846Z,28.45
2023-01-02T00:24:42.820Z,26.51
2023-01-02T00:25:42.794Z,28.94
2023-01-02T00:26:42.752Z,26.59
2023-01-02T00:27:42.738Z,25.00
2023-01-02T00:28:42.682Z,30.06
2023-01-02T00:29:42.640Z,27.54
2023-01-02T00:30:42.621Z,25.00
2023-01-02T00:31:42.618Z,28.55
2023-01-02T00:32:42.582Z,29.60
2023-01-02T00:33:42.539Z,30.35
2023-01-02T00:34:42.501Z,28.75
2023-01-02T00:35:42.419Z,30.76
2023-01-02T00:36:42.413Z,27.50
2023-01-02T00:37:42.371Z,29.24
2023-01-02T00:38:42.352Z,26.75
2023-01-02T00:39:42.296Z,26.58
2023-01-02T00:40:42.262Z,25.60
2023-01-02T00:41:42.229Z,28.22
2023-01-02T00:42:42.203Z,28.56
2023-01-02T00:43:42.156Z,28.64
2023-01-02T00:44:42.115Z,28.15
2023-01-02T00:45:42.106Z,28.98
2023-01-02T00:46:42.057Z,30.22
2023-01-02T00:47:42.018Z,26.35
2023-01-02T00:48:41.994Z,27.33
2023-01-02T00:49:41.937Z,27.49
2023-01-02T00:50:41.915Z,26.33
2023-01-02T00:51:41.855Z,29.57
2023-01-02T00:52:41.844Z,29.90
2023-01-02T00:53:41.826Z,29.07
2023-01-02T00:54:41.801Z,26.17
2023-01-02T00:55:41.753Z,27.60
2023-01-02T00:56:41.721Z,26.51
2023-01-02T00:57:41.691Z,27.44
2023-01-02T00:58:41.684Z,26.85
2023-01-02T00:59:41.633Z,27.05
2023-01-02T01:00:41.675Z,26.55
2023-01-02T01:01:41.703Z,28.25
2023-01-02T01:02:41.633Z,29.45
2023-01-02T01:03:41.521Z,27.01
2023-01-02T01:04:41.484Z,26.47
2023-01-02T01:05:41.480Z,26.19
2023-01-02T01:06:41.413Z,26.00
2023-01-02T01:07:41.396Z,28.73
2023-01-02T01:08:41.393Z,28.29
2023-01-02T01:09:41.312Z,26.24
2023-01-02T01:10:41.303Z,27.98
2023-01-02T01:11:41.254Z,27.69
2023-01-02T01:12:41.251Z,29.18
2023-01-02T01:13:41.215Z,29.39
2023-01-02T01:14:41.180Z,28.36
2023-01-02T01:15:41.133Z,26.42
2023-01-02T01:16:41.136Z,28.75
2023-01-02T01:17:41.075Z,28.80
2023-01-02T01:18:41.055Z,26.87
2023-01-02T01:19:41.002Z,27.33
2023-01-02T01:20:40.964Z,28.74
2023-01-02T01:21:40.922Z,29.38
2023-01-02T01:22:40.894Z,26.14
2023-01-02T01:23:40.970Z,28.28
2023-01-02T01:24:40.832Z,26.00
2023-01-02T01:25:40.803Z,28.27
2023-01-02T01:26:40.786Z,27.83
2023-01-02T01:27:40.737Z,29.29
2023-01-02T01:28:40.720Z,27.57
2023-01-02T01:29:40.663Z,25.97
2023-01-02T01:30:40.616Z,27.37
2023-01-02T01:31:40.616Z,28.90
2023-01-02T01:32:40.563Z,28.00
2023-01-02T01:33:40.492Z,25.00
2023-01-02T01:34:40.458Z,26.58
2023-01-02T01:35:40.411Z,26.75
2023-01-02T01:36:40.370Z,27.40
2023-01-02T01:37:40.329Z,27.58
2023-01-02T01:38:40.303Z,28.25
2023-01-02T01:39:40.266Z,26.97
2023-01-02T01:40:40.217Z,28.92
2023-01-02T01:41:40.167Z,25.72
2023-01-02T01:42:40.134Z,28.67
2023-01-02T01:43:40.095Z,28.17
2023-01-02T01:44:40.086Z,29.05
2023-01-02T01:45:40.070Z,25.85
2023-01-02T01:46:39.979Z,27.23
2023-01-02T01:47:39.935Z,28.10
2023-01-02T01:48:39.906Z,25.93
2023-01-02T01:49:39.884Z,29.97
2023-01-02T01:50:39.853Z,26.41
2023-01-02T01:51:39.779Z,28.05
2023-01-02T01:52:39.773Z,27.08
2023-01-02T01:53:39.742Z,27.56
2023-01-02T01:54:39.719Z,28.56
2023-01-02T01:55:39.662Z,27.01
2023-01-02T01:56:39.657Z,26.41
2023-01-02T01:57:39.591Z,26.88
2023-01-02T01:58:39.574Z,27.54
2023-01-02T01:59:39.535Z,26.24
2023-01-02T02:00:39.531Z,26.19
2023-01-02T02:01:39.524Z,28.80
2023-01-02T02:02:39.517Z,25.21
2023-01-02T02:03:39.381Z,27.66
2023-01-02T02:04:39.356Z,27.70
2023-01-02T02:05:39.302Z,26.97
2023-01-02T02:06:39.299Z,25.39
2023-01-02T02:07:39.246Z,28.82
2023-01-02T02:08:39.209Z,28.19
2023-01-02T02:09:39.599Z,27.29
2023-01-02T02:10:39.138Z,28.67
2023-01-02T02:11:39.105Z,27.29
2023-01-02T02:12:39.112Z,25.00
2023-01-02T02:13:39.059Z,26.89
2023-01-02T02:14:39.041Z,26.00
2023-01-02T04:06:35.242Z,28.61
2023-01-02T04:07:35.197Z,27.41
2023-01-02T04:08:35.156Z,25.73
2023-01-02T04:09:35.108Z,27.15
2023-01-02T04:10:35.098Z,28.38
2023-01-02T04:11:35.071Z,27.20
2023-01-02T04:12:35.018Z,29.97
2023-01-02T04:13:34.960Z,30.38
2023-01-02T04:14:34.946Z,30.74
2023-01-02T04:15:34.923Z,29.59
2023-01-02T04:16:34.908Z,25.67
2023-01-02T04:17:34.840Z,30.41
2023-01-02T04:18:34.803Z,32.06
2023-01-02T04:19:34.781Z,28.15
2023-01-02T04:20:34.753Z,28.74
2023-01-02T04:21:34.757Z,31.36
2023-01-02T04:22:34.672Z,28.71
2023-01-02T04:23:34.705Z,27.01
2023-01-02T04:24:34.635Z,28.28
2023-01-02T04:25:34.597Z,30.31
2023-01-02T04:26:34.572Z,27.28
2023-01-02T04:27:34.508Z,27.20
2023-01-02T04:28:34.477Z,27.53
2023-01-02T04:29:34.434Z,27.39
2023-01-02T04:30:34.398Z,28.20
2023-01-02T04:31:34.421Z,25.74
2023-01-02T04:32:34.353Z,27.25
2023-01-02T04:33:34.316Z,28.71
2023-01-02T04:34:34.272Z,29.32
2023-01-02T04:35:34.247Z,27.69
2023-01-02T04:36:34.242Z,26.30
2023-01-02T04:37:34.206Z,25.00
2023-01-02T04:38:34.138Z,29.40
2023-01-02T04:39:34.125Z,29.36
2023-01-02T04:40:34.090Z,29.55
2023-01-02T04:41:34.070Z,28.96
2023-01-02T04:42:34.052Z,28.64
2023-01-02T04:43:34.021Z,26.84
2023-01-02T04:44:33.985Z,27.73
2023-01-02T04:45:33.936Z,29.82
2023-01-02T04:46:33.922Z,28.93
2023-01-02T04:47:33.893Z,30.86
2023-01-02T04:48:33.816Z,28.75
2023-01-02T04:49:33.823Z,29.50
2023-01-02T04:50:33.777Z,29.93
2023-01-02T04:51:33.744Z,28.26
2023-01-02T04:52:37.464Z,27.65
2023-01-02T04:53:33.697Z,27.76
2023-01-02T04:54:33.675Z,27.73
2023-01-02T04:55:33.634Z,27.29
2023-01-02T04:56:33.615Z,26.89
2023-01-02T04:57:33.588Z,26.59
2023-01-02T04:58:33.543Z,27.49
2023-01-02T04:59:33.514Z,26.26
2023-01-02T05:00:33.486Z,26.39
2023-01-02T05:01:33.573Z,29.07
2023-01-02T05:02:33.573Z,29.93
2023-01-02T05:03:33.438Z,25.44
2023-01-02T05:04:33.383Z,25.76
2023-01-02T05:05:33.376Z,25.98
2023-01-02T05:06:33.321Z,27.11
2023-01-02T05:07:33.305Z,27.84
2023-01-02T05:08:33.253Z,26.28
2023-01-02T05:09:33.218Z,27.81
2023-01-02T05:10:33.187Z,27.22
2023-01-02T05:11:33.176Z,26.80
2023-01-02T05:12:33.159Z,27.52
2023-01-02T05:13:33.093Z,25.36
2023-01-02T05:14:33.057Z,29.63
2023-01-02T05:15:33.100Z,28.25
2023-01-02T05:16:33.017Z,25.98
2023-01-02T05:17:32.976Z,30.28
2023-01-02T05:18:32.931Z,28.87
2023-01-02T05:19:32.896Z,28.69
2023-01-02T05:20:32.864Z,25.00
2023-01-02T05:21:32.873Z,28.61
2023-01-02T05:22:32.818Z,27.64
2023-01-02T05:23:32.852Z,29.75
2023-01-02T05:24:32.739Z,27.52
2023-01-02T05:25:32.720Z,28.11
2023-01-02T05:26:32.747Z,26.87
2023-01-02T05:27:32.678Z,25.55
2023-01-02T05:28:38.357Z,30.67
2023-01-02T05:29:33.584Z,29.71
2023-01-02T05:30:32.559Z,28.54
2023-01-02T05:31:32.547Z,25.93
2023-01-02T05:32:32.514Z,27.83
2023-01-02T05:33:32.467Z,24.89
2023-01-02T05:34:32.430Z,25.63
2023-01-02T05:35:33.491Z,28.28
2023-01-02T05:36:32.389Z,27.90
2023-01-02T05:37:32.370Z,26.48
2023-01-02T05:38:32.318Z,30.13
2023-01-02T05:39:32.290Z,25.23
2023-01-02T05:40:32.243Z,27.49
2023-01-02T05:41:32.216Z,26.69
2023-01-02T05:42:32.179Z,27.56
2023-01-02T05:43:32.184Z,28.16
2023-01-02T05:44:32.119Z,27.67
2023-01-02T05:45:32.105Z,31.85
2023-01-02T05:46:32.070Z,29.35
2023-01-02T05:47:32.050Z,27.70
2023-01-02T05:48:32.031Z,26.45
2023-01-02T05:49:31.975Z,26.88
2023-01-02T05:50:31.959Z,27.08
2023-01-02T05:51:31.937Z,27.75
2023-01-02T05:52:31.894Z,29.27
2023-01-02T05:53:31.880Z,25.77
2023-01-02T05:54:31.868Z,26.99
2023-01-02T05:55:31.844Z,25.04
2023-01-02T05:56:31.791Z,27.01
2023-01-02T05:57:31.765Z,25.00
2023-01-02T05:58:31.761Z,27.04
2023-01-02T05:59:35.832Z,27.57
2023-01-02T06:00:31.708Z,27.64
2023-01-02T06:01:31.678Z,27.79
2023-01-02T06:02:31.677Z,26.42
2023-01-02T06:03:31.700Z,28.00
2023-01-02T06:04:31.568Z,27.23
2023-01-02T06:05:31.521Z,26.43
2023-01-02T06:06:31.493Z,26.77
2023-01-02T06:07:31.508Z,25.00
2023-01-02T06:08:31.458Z,26.53
2023-01-02T06:09:31.453Z,26.40
2023-01-02T06:10:31.429Z,30.21
2023-01-02T06:11:31.379Z,28.18
2023-01-02T06:12:31.335Z,26.22
2023-01-02T06:13:31.339Z,26.54
2023-01-02T06:14:31.274Z,30.41
2023-01-02T06:15:31.230Z,29.62
2023-01-02T06:16:31.276Z,29.56
2023-01-02T06:17:31.186Z,26.95
2023-01-02T06:18:31.174Z,30.84
2023-01-02T06:19:31.115Z,30.00
2023-01-02T06:20:31.121Z,28.91
2023-01-02T06:21:31.106Z,27.21
2023-01-02T06:22:31.027Z,29.53
2023-01-02T06:23:31.022Z,28.26
2023-01-02T06:24:30.967Z,28.36
2023-01-02T06:25:30.937Z,27.44
2023-01-02T06:26:35.001Z,25.65
2023-01-02T06:27:30.866Z,25.86
2023-01-02T06:28:30.876Z,26.54
2023-01-02T06:29:30.814Z,26.16
2023-01-02T06:30:30.781Z,28.19
2023-01-02T06:31:30.822Z,26.86
2023-01-02T06:32:30.726Z,28.10
2023-01-02T06:33:30.708Z,27.14
2023-01-02T06:34:30.654Z,26.14
2023-01-02T06:35:30.614Z,27.47
2023-01-02T06:36:30.628Z,27.86
2023-01-02T06:37:30.583Z,28.27
2023-01-02T06:38:30.578Z,29.62
2023-01-02T06:39:30.559Z,28.09
2023-01-02T06:40:30.465Z,27.00
2023-01-02T06:41:30.463Z,26.89
2023-01-02T06:42:30.421Z,25.00
2023-01-02T06:43:30.386Z,27.53
2023-01-02T06:44:30.381Z,28.93
2023-01-02T06:45:30.365Z,28.93
2023-01-02T06:46:30.303Z,27.56
2023-01-02T06:47:30.276Z,29.54
2023-01-02T06:48:30.240Z,29.30
2023-01-02T06:49:30.245Z,27.12
2023-01-02T06:50:34.860Z,27.57
2023-01-02T06:51:31.145Z,27.71
2023-01-02T06:52:30.125Z,27.78
2023-01-02T06:53:30.111Z,27.64
2023-01-02T06:54:30.082Z,27.70
2023-01-02T06:55:30.042Z,29.57
2023-01-02T06:56:30.006Z,27.78
2023-01-02T06:57:29.986Z,28.72
2023-01-02T06:58:29.950Z,28.25
2023-01-02T06:59:29.949Z,28.04
2023-01-02T07:00:29.905Z,27.19
2023-01-02T07:01:30.051Z,26.86
2023-01-02T07:02:29.902Z,28.66
2023-01-02T07:03:29.785Z,26.81
2023-01-02T07:04:30.859Z,28.30
2023-01-02T07:05:29.730Z,28.97
2023-01-02T07:06:29.699Z,25.87
2023-01-02T07:07:29.684Z,28.43
2023-01-02T07:08:29.686Z,28.54
2023-01-02T07:09:29.613Z,28.64
2023-01-02T07:10:29.661Z,29.19
2023-01-02T07:11:29.560Z,28.18
2023-01-02T07:12:29.522Z,24.25
2023-01-02T07:13:29.474Z,28.96
2023-01-02T07:14:29.454Z,27.05
2023-01-02T07:15:29.407Z,27.27
2023-01-02T07:16:29.427Z,26.63
2023-01-02T07:17:29.334Z,25.11
2023-01-02T07:18:29.316Z,27.86
2023-01-02T07:19:29.290Z,27.79
2023-01-02T07:20:29.371Z,29.35
2023-01-02T07:21:29.224Z,29.43
2023-01-02T07:22:29.192Z,29.47
2023-01-02T07:23:29.125Z,29.52
2023-01-02T07:24:29.105Z,27.23
2023-01-02T07:25:29.052Z,28.08
2023-01-02T07:26:28.990Z,26.71
2023-01-02T08:42:26.348Z,29.00
2023-01-02T08:43:26.307Z,27.12
2023-01-02T08:44:26.263Z,30.77
2023-01-02T08:45:26.269Z,28.22
2023-01-02T08:46:26.231Z,29.52
2023-01-02T08:47:26.185Z,27.46
2023-01-02T08:48:26.154Z,28.69
2023-01-02T08:49:26.106Z,26.73
2023-01-02T08:50:26.176Z,26.97
2023-01-02T08:51:26.033Z,28.61
2023-01-02T08:52:26.007Z,27.35
2023-01-02T08:53:25.982Z,26.91
2023-01-02T08:54:25.925Z,26.14
2023-01-02T08:56:25.876Z,27.69
2023-01-02T08:57:25.833Z,26.99
2023-01-02T08:58:25.794Z,26.96
2023-01-02T08:59:25.762Z,27.31
2023-01-02T09:00:25.843Z,27.17
2023-01-02T09:01:25.826Z,27.33
2023-01-02T09:02:25.909Z,25.95
2023-01-02T09:03:25.682Z,28.43
2023-01-02T09:04:25.568Z,27.35
2023-01-02T09:05:25.527Z,27.51
2023-01-02T09:06:25.522Z,27.70
2023-01-02T09:07:25.487Z,27.33
2023-01-02T09:08:25.442Z,27.45
2023-01-02T09:09:25.402Z,26.33
2023-01-02T09:10:25.633Z,27.88
2023-01-02T09:11:25.324Z,27.03
2023-01-02T09:12:25.283Z,27.17
2023-01-02T09:13:25.242Z,26.86
2023-01-02T09:15:25.320Z,27.53
2023-01-02T09:17:25.061Z,27.71
2023-01-02T09:18:29.373Z,28.76
2023-01-02T09:19:24.989Z,28.31
2023-01-02T09:21:24.930Z,18.67
2023-01-02T09:22:24.829Z,22.12
2023-01-02T09:23:24.787Z,19.74
2023-01-02T09:24:24.743Z,30.96
2023-01-02T09:25:24.812Z,33.12
2023-01-02T09:26:24.688Z,28.88
2023-01-02T09:27:24.608Z,31.13
2023-01-02T09:28:24.553Z,25.00
2023-01-02T09:29:24.536Z,28.38
2023-01-02T09:30:24.530Z,31.88
2023-01-02T09:31:24.465Z,33.42
2023-01-02T09:32:24.390Z,25.16
2023-01-02T09:33:24.340Z,30.03
2023-01-02T09:34:24.280Z,25.99
2023-01-02T09:35:24.237Z,29.98
2023-01-02T09:36:24.239Z,32.13
2023-01-02T09:37:24.163Z,34.15
2023-01-02T09:38:24.150Z,25.00
2023-01-02T09:39:30.305Z,28.48
2023-01-02T09:40:25.052Z,28.67
2023-01-02T09:41:23.984Z,28.72
2023-01-02T09:42:23.982Z,30.12
2023-01-02T09:43:23.938Z,30.09
2023-01-02T09:45:23.845Z,26.45
2023-01-02T09:46:23.811Z,27.44
2023-01-02T09:47:23.752Z,32.41
2023-01-02T09:48:23.698Z,31.96
2023-01-02T09:49:23.650Z,33.43
2023-01-02T09:50:23.704Z,32.35
2023-01-02T09:51:23.538Z,30.26
2023-01-02T09:52:23.546Z,32.35
2023-01-02T09:53:23.472Z,28.87
2023-01-02T09:54:23.433Z,32.22
2023-01-02T09:55:23.387Z,30.63
2023-01-02T09:56:26.321Z,30.37
2023-01-02T09:57:24.292Z,30.57
2023-01-02T09:58:23.250Z,26.98
2023-01-02T09:59:23.204Z,26.32
2023-01-02T10:00:23.166Z,30.52
2023-01-02T10:01:23.132Z,29.97
2023-01-02T10:02:23.115Z,26.65
2023-01-02T10:03:23.073Z,28.61
2023-01-02T10:04:22.974Z,26.43
2023-01-02T10:05:22.902Z,27.38
2023-01-02T10:06:22.831Z,29.32
2023-01-02T10:07:22.819Z,30.73
2023-01-02T10:08:27.913Z,30.37
2023-01-02T10:09:23.680Z,30.48
2023-01-02T10:10:22.742Z,27.18
2023-01-02T10:11:22.625Z,30.40
2023-01-02T10:12:22.544Z,28.18
2023-01-02T10:13:32.639Z,27.16
2023-01-02T10:14:29.901Z,30.44
2023-01-02T10:15:23.375Z,30.49
2023-01-02T10:16:22.376Z,30.60
2023-01-02T10:17:22.301Z,29.38
2023-01-02T10:18:22.259Z,30.80
2023-01-02T10:19:22.192Z,27.19
2023-01-02T10:20:24.302Z,27.50
2023-01-02T10:21:22.118Z,27.59
2023-01-02T10:22:22.041Z,27.30
2023-01-02T10:23:21.978Z,27.98
2023-01-02T10:24:21.926Z,26.19
2023-01-02T10:25:21.851Z,27.22
2023-01-02T10:26:21.808Z,27.74
2023-01-02T10:27:21.797Z,26.66
2023-01-02T10:28:21.711Z,29.44
2023-01-02T10:29:21.705Z,27.91
2023-01-02T10:30:21.747Z,26.61
2023-01-02T10:31:21.738Z,26.99
2023-01-02T10:32:21.740Z,28.32
2023-01-02T10:33:21.736Z,28.38
2023-01-02T10:34:21.744Z,30.43
2023-01-02T10:35:21.751Z,26.05
2023-01-02T10:36:21.759Z,30.90
2023-01-02T10:37:21.783Z,26.60
2023-01-02T10:38:21.773Z,28.07
2023-01-02T10:39:21.767Z,25.08
2023-01-02T10:40:21.917Z,25.59
2023-01-02T10:41:21.807Z,28.57
2023-01-02T10:42:21.770Z,28.43
2023-01-02T10:43:21.888Z,29.95
2023-01-02T10:44:21.800Z,28.43
2023-01-02T10:45:21.811Z,28.48
2023-01-02T10:46:21.833Z,28.64
2023-01-02T10:47:21.818Z,28.49
2023-01-02T10:48:21.847Z,27.41
2023-01-02T10:49:21.840Z,32.69
2023-01-02T10:50:21.857Z,27.47
2023-01-02T10:51:21.843Z,29.57
2023-01-02T10:52:21.876Z,29.61
2023-01-02T10:53:21.870Z,29.31
2023-01-02T10:54:21.890Z,30.14
2023-01-02T10:55:21.859Z,29.56
2023-01-02T10:56:21.886Z,28.45
2023-01-02T10:57:21.889Z,31.80
2023-01-02T10:58:21.968Z,31.68
2023-01-02T10:59:21.901Z,29.78
2023-01-02T11:00:27.684Z,28.03
2023-01-02T11:01:23.060Z,28.20
2023-01-02T11:02:21.909Z,28.86
2023-01-02T11:03:21.755Z,27.97
2023-01-02T11:04:21.691Z,28.44
2023-01-02T11:05:21.647Z,31.13
2023-01-02T11:06:31.095Z,27.02
2023-01-02T11:07:22.520Z,27.25
2023-01-02T11:08:21.473Z,27.52
2023-01-02T11:09:21.447Z,27.93
2023-01-02T11:10:21.373Z,27.90
2023-01-02T11:11:21.306Z,30.62
2023-01-02T11:12:26.936Z,31.86
2023-01-02T11:13:22.229Z,31.95
2023-01-02T11:14:21.123Z,31.82
2023-01-02T11:15:21.063Z,30.10
2023-01-02T11:16:21.053Z,31.82
2023-01-02T11:17:20.990Z,30.99
2023-01-02T11:18:20.941Z,28.28
2023-01-02T11:19:27.425Z,32.70
2023-01-02T11:20:21.829Z,32.78
2023-01-02T11:21:20.771Z,32.07
2023-01-02T11:22:20.708Z,30.53
2023-01-02T11:23:20.645Z,28.55
2023-01-02T11:24:20.641Z,25.56
2023-01-02T11:25:20.539Z,27.83
2023-01-02T11:26:20.494Z,30.95
2023-01-02T11:27:20.420Z,28.28
2023-01-02T11:28:20.382Z,27.02
2023-01-02T11:29:20.312Z,25.00
2023-01-02T11:30:20.246Z,29.08
2023-01-02T11:31:20.200Z,28.79
2023-01-02T11:32:20.169Z,30.42
2023-01-02T11:33:20.092Z,28.80
2023-01-02T11:34:20.026Z,29.00
2023-01-02T11:35:19.934Z,29.84
2023-01-02T11:36:19.883Z,30.49
2023-01-02T11:37:19.796Z,27.15
2023-01-02T11:38:28.680Z,27.85
2023-01-02T11:39:20.676Z,28.12
2023-01-02T11:40:19.583Z,28.58
2023-01-02T11:41:19.509Z,28.06
2023-01-02T11:42:19.461Z,29.46
2023-01-02T11:43:19.371Z,26.52
2023-01-02T11:44:20.828Z,26.43
2023-01-02T11:45:19.227Z,26.54
2023-01-02T11:46:19.205Z,27.36
2023-01-02T11:47:19.070Z,25.00
2023-01-02T11:48:19.012Z,29.21
2023-01-02T12:52:14.341Z,27.95
2023-01-02T12:53:14.295Z,28.03
2023-01-02T12:55:14.139Z,28.95
2023-01-02T13:00:13.797Z,25.39
2023-01-02T13:02:13.835Z,26.90
2023-01-02T13:04:13.508Z,25.72
2023-01-02T13:06:45.226Z,28.70
2023-01-02T13:10:13.161Z,27.81
2023-01-02T13:13:12.966Z,28.21
2023-01-02T13:17:12.737Z,37.91
2023-01-02T13:21:12.487Z,46.26
2023-01-02T13:23:12.288Z,45.02
2023-01-02T13:24:12.229Z,49.79
2023-01-02T13:25:12.158Z,44.45
2023-01-02T13:26:12.097Z,40.51
2023-01-02T13:27:12.025Z,37.76
2023-01-02T13:28:11.993Z,36.49
2023-01-02T13:29:11.901Z,32.70
2023-01-02T13:30:16.555Z,31.29
2023-01-02T13:32:11.681Z,29.09
2023-01-02T13:33:11.627Z,29.36
2023-01-02T13:34:11.564Z,31.09
2023-01-02T13:35:11.479Z,28.51
2023-01-02T13:36:17.110Z,28.30
2023-01-02T13:38:11.334Z,28.28
2023-01-02T13:39:11.351Z,25.44
2023-01-02T13:40:11.205Z,27.89
2023-01-02T13:41:11.172Z,24.86
2023-01-02T13:42:11.106Z,27.27
2023-01-02T13:43:11.030Z,27.06
2023-01-02T13:44:10.977Z,30.34
2023-01-02T13:45:10.915Z,27.60
2023-01-02T13:46:15.763Z,28.58
2023-01-02T13:47:11.868Z,28.74
2023-01-02T13:48:10.745Z,28.87
2023-01-02T13:49:10.708Z,28.14
2023-01-02T13:50:10.642Z,28.28
2023-01-02T13:51:10.612Z,26.65
2023-01-02T13:52:10.527Z,25.91
2023-01-02T13:53:10.496Z,26.91
2023-01-02T13:54:14.193Z,25.77
2023-01-02T13:55:11.350Z,25.95
2023-01-02T13:56:10.308Z,26.02
2023-01-02T13:57:10.242Z,26.80
2023-01-02T13:58:10.162Z,27.11
2023-01-02T13:59:41.762Z,26.45
2023-01-02T14:00:11.068Z,26.00
2023-01-02T14:01:10.058Z,25.80
2023-01-02T14:02:10.161Z,26.08
2023-01-02T14:03:09.882Z,28.19
2023-01-02T14:04:09.822Z,26.44
2023-01-02T14:05:09.764Z,28.67
2023-01-02T14:06:09.699Z,26.31
2023-01-02T14:07:09.644Z,28.32
2023-01-02T14:08:09.591Z,28.45
2023-01-02T14:09:09.536Z,28.69
2023-01-02T14:10:09.490Z,29.83
2023-01-02T14:11:09.444Z,28.18
2023-01-02T14:12:09.359Z,27.56
2023-01-02T14:13:09.316Z,27.63
2023-01-02T14:14:09.260Z,28.45
2023-01-02T14:15:09.189Z,29.58
2023-01-02T14:16:09.243Z,28.30
2023-01-02T14:17:09.091Z,28.88
2023-01-02T14:18:09.048Z,26.54
2023-01-02T14:19:09.011Z,28.99
2023-01-02T16:53:01.773Z,54.83
2023-01-02T16:54:01.736Z,56.28
2023-01-02T16:55:01.685Z,56.94
2023-01-02T16:56:01.650Z,52.60
2023-01-02T16:57:01.610Z,52.69
2023-01-02T16:58:01.562Z,54.65
2023-01-02T16:59:01.528Z,47.34
2023-01-02T17:00:01.489Z,56.19
2023-01-02T17:01:01.483Z,56.68
2023-01-02T17:02:01.551Z,54.50
2023-01-02T17:03:01.435Z,49.29
2023-01-02T17:04:01.340Z,49.83
2023-01-02T17:05:01.243Z,55.94
2023-01-02T17:06:02.861Z,55.70
2023-01-02T17:07:01.186Z,53.46
2023-01-02T17:08:01.130Z,54.66
2023-01-02T17:09:01.099Z,53.30
2023-01-02T17:10:01.034Z,54.59
2023-01-02T17:11:01.046Z,53.40
2023-01-02T17:12:00.981Z,55.79
2023-01-02T17:13:00.901Z,54.21
2023-01-02T17:14:00.894Z,54.46
2023-01-02T17:15:00.811Z,55.31
2023-01-02T17:16:00.876Z,54.36
2023-01-02T17:17:00.755Z,54.51
2023-01-02T17:18:00.706Z,51.99
2023-01-02T17:19:00.681Z,54.63
2023-01-02T17:20:00.652Z,52.39
2023-01-02T17:21:00.588Z,54.31
2023-01-02T17:22:00.526Z,52.56
2023-01-02T17:23:00.582Z,53.87
2023-01-02T17:24:00.438Z,53.02
2023-01-02T17:25:00.435Z,54.82
2023-01-02T17:26:00.353Z,53.26
2023-01-02T17:27:00.328Z,53.51
2023-01-02T17:28:00.277Z,49.61
2023-01-02T17:29:00.236Z,53.99
2023-01-02T17:30:00.218Z,52.97
2023-01-02T17:31:00.157Z,52.17
2023-01-02T17:32:00.164Z,53.67
2023-01-02T17:33:03.976Z,54.15
2023-01-02T17:34:00.010Z,54.28
2023-01-02T17:34:59.968Z,54.19
2023-01-02T17:35:59.917Z,55.16
2023-01-02T17:36:59.861Z,54.51
2023-01-02T17:37:59.826Z,54.94
2023-01-02T17:38:59.779Z,54.50
2023-01-02T17:39:59.739Z,54.78
2023-01-02T17:40:59.699Z,54.13
2023-01-02T17:41:59.688Z,54.47
2023-01-02T17:42:59.631Z,54.46
2023-01-02T17:44:01.855Z,54.17
2023-01-02T17:44:59.544Z,54.23
2023-01-02T17:45:59.537Z,54.25
2023-01-02T17:47:23.351Z,54.06
2023-01-02T17:48:07.551Z,54.36
2023-01-02T17:49:00.377Z,54.38
2023-01-02T17:49:59.340Z,55.01
2023-01-02T17:50:59.270Z,55.73
2023-01-02T17:51:59.222Z,54.83
2023-01-02T17:52:59.182Z,55.06
2023-01-02T17:53:59.134Z,53.99
2023-01-02T17:54:59.103Z,53.60
2023-01-02T17:56:21.573Z,54.65
2023-01-02T17:57:00.016Z,54.88
2023-01-02T21:10:51.524Z,39.20
2023-01-02T21:11:51.502Z,38.15
2023-01-02T21:12:51.468Z,37.98
2023-01-02T21:13:51.428Z,39.70
2023-01-02T21:14:51.392Z,38.50
2023-01-02T21:15:51.427Z,38.76
2023-01-02T21:16:51.286Z,37.95
2023-01-02T21:17:51.263Z,37.45
2023-01-02T21:18:51.199Z,38.20
2023-01-02T21:19:51.163Z,37.00
2023-01-02T21:20:51.122Z,38.11
2023-01-02T21:21:51.071Z,36.98
2023-01-02T21:22:51.061Z,35.92
2023-01-02T21:23:50.976Z,38.71
2023-01-02T21:24:50.946Z,37.16
2023-01-02T21:25:50.916Z,37.15
2023-01-02T21:26:50.874Z,35.51
2023-01-02T21:27:50.864Z,36.04
2023-01-02T21:28:50.810Z,37.60
2023-01-02T21:29:50.740Z,36.24
2023-01-02T21:30:50.732Z,37.14
2023-01-02T21:31:50.743Z,37.64
2023-01-02T21:32:50.633Z,36.38
2023-01-02T21:33:50.614Z,33.51
2023-01-02T21:34:50.567Z,37.57
2023-01-02T21:35:50.530Z,37.04
2023-01-02T21:36:50.490Z,35.90
2023-01-02T21:37:50.457Z,34.15
2023-01-02T21:38:50.417Z,35.20
2023-01-02T21:39:50.381Z,36.91
2023-01-02T21:40:50.331Z,36.03
2023-01-02T21:41:50.284Z,34.33
2023-01-02T21:42:50.270Z,35.39
2023-01-02T21:43:50.222Z,36.80
2023-01-02T21:44:50.174Z,35.70
2023-01-02T21:45:50.123Z,34.71
2023-01-02T21:46:50.161Z,35.63
2023-01-02T21:47:50.065Z,34.96
2023-01-02T21:48:50.033Z,36.54
2023-01-02T21:49:49.986Z,35.25
2023-01-02T21:50:49.953Z,35.14
2023-01-02T21:51:49.927Z,34.38
2023-01-02T21:52:49.883Z,33.00
2023-01-02T21:53:49.845Z,36.85
2023-01-02T21:54:49.799Z,34.86
2023-01-02T21:55:49.756Z,34.81
2023-01-02T21:56:49.719Z,33.37
2023-01-02T21:58:15.687Z,35.11
2023-01-02T21:59:49.590Z,35.33
2023-01-02T22:00:49.590Z,35.36
2023-01-02T22:01:49.628Z,33.93
2023-01-02T22:02:49.564Z,36.09
2023-01-02T22:03:49.430Z,34.68
2023-01-02T22:04:49.395Z,33.12
2023-01-02T22:05:49.352Z,33.47
2023-01-02T22:07:21.296Z,33.61
2023-01-02T22:07:49.246Z,33.70
2023-01-02T22:08:49.210Z,33.85
2023-01-02T22:09:49.153Z,34.34
2023-01-02T22:10:49.121Z,33.80
2023-01-02T22:11:49.398Z,33.90
2023-01-02T22:12:49.022Z,33.43
2023-01-02T22:13:49.079Z,32.06
